Time;durP1;ratioP1;P1;durP2;ratioP2;P2;SDS_P1;SDS_P2;PMS_P1;PMS_P2;Temp;Humidity;BMP_temperature;BMP_pressure;BME280_temperature;BME280_humidity;BME280_pressure;Samples;Min_cycle;Max_cycle;Signal;HPM_P1;HPM_P2
2020/12/09 00:01:14;;;;;;;6.72;3.00;;;;;;;;;;5091230;28;20089;-70
2020/12/09 00:03:40;;;;;;;4.25;2.67;;;;;;;;;;5091934;28;20032;-70
2020/12/09 00:06:07;;;;;;;4.45;2.60;;;;;;;;;;5086759;28;20581;-71
2020/12/09 00:08:33;;;;;;;5.03;2.60;;;;;;;;;;5095805;28;20027;-71
2020/12/09 00:10:59;;;;;;;5.35;2.72;;;;;;;;;;5094360;28;20048;-70
2020/12/09 00:13:26;;;;;;;4.25;2.28;;;;;;;;;;5077249;28;20047;-70
2020/12/09 00:15:52;;;;;;;4.80;2.83;;;;;;;;;;5094647;28;20354;-70
2020/12/09 00:18:18;;;;;;;4.28;2.38;;;;;;;;;;5096140;28;20020;-70
2020/12/09 00:20:44;;;;;;;5.82;3.35;;;;;;;;;;5095729;28;20537;-70
2020/12/09 00:23:10;;;;;;;7.57;3.75;;;;;;;;;;5095208;28;20098;-71
2020/12/09 00:25:36;;;;;;;4.55;2.40;;;;;;;;;;5095594;28;20024;-72
2020/12/09 00:28:03;;;;;;;4.47;2.45;;;;;;;;;;5094563;28;20043;-72
2020/12/09 00:30:29;;;;;;;5.00;2.67;;;;;;;;;;5094598;28;20016;-71
2020/12/09 00:32:55;;;;;;;4.88;2.78;;;;;;;;;;5094534;28;20027;-72
2020/12/09 00:35:21;;;;;;;6.03;2.72;;;;;;;;;;5095099;28;20030;-71
2020/12/09 00:37:47;;;;;;;4.82;2.63;;;;;;;;;;5094707;28;20024;-70
2020/12/09 00:40:13;;;;;;;3.15;2.00;;;;;;;;;;5094980;28;20028;-71
2020/12/09 00:42:39;;;;;;;3.72;2.15;;;;;;;;;;5095029;28;20023;-71
2020/12/09 00:45:06;;;;;;;4.95;1.95;;;;;;;;;;5094426;28;20131;-71
2020/12/09 00:47:32;;;;;;;5.55;2.20;;;;;;;;;;5076956;28;20013;-73
2020/12/09 00:49:58;;;;;;;3.88;1.80;;;;;;;;;;5094223;28;20077;-73
2020/12/09 00:52:25;;;;;;;4.47;1.58;;;;;;;;;;5094934;28;20461;-72
2020/12/09 00:54:51;;;;;;;3.40;1.90;;;;;;;;;;5095080;28;20109;-72
2020/12/09 00:57:22;;;;;;;4.32;2.33;;;;;;;;;;5093826;28;20016;-71
2020/12/09 00:59:48;;;;;;;4.97;1.90;;;;;;;;;;5094333;28;20024;-72
2020/12/09 01:02:14;;;;;;;5.82;2.20;;;;;;;;;;5094820;28;20039;-71
2020/12/09 01:04:40;;;;;;;4.28;2.08;;;;;;;;;;5095198;28;20028;-72
2020/12/09 01:07:07;;;;;;;4.00;1.80;;;;;;;;;;5094269;28;20028;-71
2020/12/09 01:09:33;;;;;;;3.42;1.77;;;;;;;;;;5094788;28;20481;-71
2020/12/09 01:12:02;;;;;;;3.13;2.00;;;;;;;;;;5094862;28;20032;-71
2020/12/09 01:14:28;;;;;;;4.10;1.65;;;;;;;;;;5094050;28;20020;-70
2020/12/09 01:16:54;;;;;;;3.10;1.83;;;;;;;;;;5093996;28;20016;-74
2020/12/09 01:19:20;;;;;;;2.47;1.67;;;;;;;;;;5094844;28;20024;-71
2020/12/09 01:21:46;;;;;;;2.00;1.60;;;;;;;;;;5094256;28;20031;-71
2020/12/09 01:24:12;;;;;;;2.33;1.52;;;;;;;;;;5094784;28;20462;-71
2020/12/09 01:26:38;;;;;;;3.53;2.00;;;;;;;;;;5094016;28;20453;-71
2020/12/09 01:29:04;;;;;;;2.75;1.50;;;;;;;;;;5093708;28;20030;-71
2020/12/09 01:31:30;;;;;;;3.78;1.90;;;;;;;;;;5094496;28;20032;-71
2020/12/09 01:33:56;;;;;;;3.38;1.95;;;;;;;;;;5094369;28;20064;-70
2020/12/09 01:36:23;;;;;;;2.72;1.70;;;;;;;;;;5093529;28;20077;-72
2020/12/09 01:38:50;;;;;;;2.42;1.77;;;;;;;;;;5094581;28;20036;-69
2020/12/09 01:41:17;;;;;;;4.63;2.00;;;;;;;;;;5094070;28;20353;-72
2020/12/09 01:43:46;;;;;;;2.80;2.10;;;;;;;;;;5093744;28;20050;-71
2020/12/09 01:46:15;;;;;;;3.45;2.05;;;;;;;;;;5094147;28;20149;-70
2020/12/09 01:48:41;;;;;;;3.35;1.77;;;;;;;;;;5094363;28;20089;-71
2020/12/09 01:51:07;;;;;;;3.22;1.88;;;;;;;;;;5093688;28;20031;-70
2020/12/09 01:53:34;;;;;;;3.00;1.80;;;;;;;;;;5093931;28;20093;-70
2020/12/09 01:56:00;;;;;;;5.20;2.20;;;;;;;;;;5093869;28;20039;-71
2020/12/09 01:58:26;;;;;;;1.88;1.35;;;;;;;;;;5093474;28;20415;-70
2020/12/09 02:00:54;;;;;;;2.58;1.75;;;;;;;;;;5093867;28;20419;-71
2020/12/09 02:03:20;;;;;;;4.43;1.80;;;;;;;;;;5093427;28;20012;-69
2020/12/09 02:05:46;;;;;;;3.40;2.08;;;;;;;;;;5093689;28;20032;-70
2020/12/09 02:08:12;;;;;;;4.18;2.00;;;;;;;;;;5093820;28;20500;-71
2020/12/09 02:10:38;;;;;;;7.25;2.83;;;;;;;;;;5094164;28;20071;-70
2020/12/09 02:13:04;;;;;;;4.05;2.35;;;;;;;;;;5094631;28;20023;-70
2020/12/09 02:15:30;;;;;;;3.40;1.80;;;;;;;;;;5094636;28;20527;-71
2020/12/09 02:17:56;;;;;;;4.32;2.53;;;;;;;;;;5094214;28;20461;-71
2020/12/09 02:20:23;;;;;;;2.55;1.50;;;;;;;;;;5094055;28;20500;-71
2020/12/09 02:22:55;;;;;;;2.88;1.73;;;;;;;;;;5094472;28;20042;-71
2020/12/09 02:25:21;;;;;;;2.88;1.88;;;;;;;;;;5093889;28;20073;-71
2020/12/09 02:27:48;;;;;;;5.28;1.75;;;;;;;;;;5093162;28;20048;-71
2020/12/09 02:30:15;;;;;;;5.03;1.95;;;;;;;;;;5076119;28;20466;-71
2020/12/09 02:32:41;;;;;;;2.88;1.85;;;;;;;;;;5093677;28;20063;-72
2020/12/09 02:35:08;;;;;;;1.85;1.25;;;;;;;;;;5093959;28;20100;-72
2020/12/09 02:37:34;;;;;;;2.75;1.45;;;;;;;;;;5094255;28;20095;-72
2020/12/09 02:40:00;;;;;;;4.07;2.00;;;;;;;;;;5093803;28;20511;-71
2020/12/09 02:42:26;;;;;;;1.65;0.93;;;;;;;;;;5093607;28;20485;-71
2020/12/09 02:44:52;;;;;;;2.13;1.42;;;;;;;;;;5094006;28;20024;-71
2020/12/09 02:47:18;;;;;;;2.88;1.30;;;;;;;;;;5093737;28;20020;-71
2020/12/09 02:49:44;;;;;;;2.45;1.35;;;;;;;;;;5093568;28;20031;-71
2020/12/09 02:52:10;;;;;;;1.75;1.20;;;;;;;;;;5093221;28;20032;-71
2020/12/09 02:54:36;;;;;;;2.17;1.45;;;;;;;;;;5093740;28;20522;-71
2020/12/09 02:57:03;;;;;;;2.58;1.55;;;;;;;;;;5093853;28;20052;-71
2020/12/09 02:59:29;;;;;;;1.67;1.45;;;;;;;;;;5093372;28;20461;-71
2020/12/09 03:01:55;;;;;;;3.30;1.73;;;;;;;;;;5093801;28;20046;-72
2020/12/09 03:04:21;;;;;;;3.50;1.75;;;;;;;;;;5093675;28;20028;-71
2020/12/09 03:06:47;;;;;;;4.13;2.15;;;;;;;;;;5093126;28;20056;-70
2020/12/09 03:09:13;;;;;;;3.45;1.83;;;;;;;;;;5093582;28;20056;-70
2020/12/09 03:11:39;;;;;;;3.72;2.22;;;;;;;;;;5075050;28;20111;-70
2020/12/09 03:14:05;;;;;;;2.67;1.67;;;;;;;;;;5093305;28;20031;-70
2020/12/09 03:16:31;;;;;;;1.33;1.17;;;;;;;;;;5093571;28;20021;-70
2020/12/09 03:18:59;;;;;;;3.30;1.77;;;;;;;;;;5093171;28;20027;-70
2020/12/09 03:21:25;;;;;;;2.85;1.88;;;;;;;;;;5092915;28;20078;-69
2020/12/09 03:23:51;;;;;;;2.97;1.85;;;;;;;;;;5093318;28;20059;-69
2020/12/09 03:26:17;;;;;;;2.03;1.50;;;;;;;;;;5093483;28;20024;-72
2020/12/09 03:28:43;;;;;;;2.70;1.55;;;;;;;;;;5092688;28;20416;-71
2020/12/09 03:31:09;;;;;;;1.90;1.17;;;;;;;;;;5093318;28;20036;-70
2020/12/09 03:33:36;;;;;;;3.67;1.90;;;;;;;;;;5093143;28;20421;-71
2020/12/09 03:36:02;;;;;;;3.90;2.28;;;;;;;;;;5074874;28;20042;-70
2020/12/09 03:38:28;;;;;;;3.00;2.08;;;;;;;;;;5093354;28;20169;-69
2020/12/09 03:40:54;;;;;;;3.50;1.98;;;;;;;;;;5096915;28;20505;-69
2020/12/09 03:43:20;;;;;;;4.15;1.75;;;;;;;;;;5097333;28;20047;-70
2020/12/09 03:45:46;;;;;;;3.72;2.00;;;;;;;;;;5097311;28;20027;-70
2020/12/09 03:48:12;;;;;;;4.72;2.55;;;;;;;;;;5096867;28;20423;-70
2020/12/09 03:50:38;;;;;;;6.22;2.63;;;;;;;;;;5097417;28;20091;-70
2020/12/09 03:53:05;;;;;;;4.93;2.40;;;;;;;;;;5097172;28;20081;-70
2020/12/09 03:55:31;;;;;;;2.92;1.90;;;;;;;;;;5096990;28;20044;-70
2020/12/09 03:58:00;;;;;;;4.63;2.75;;;;;;;;;;5096838;28;20380;-70
2020/12/09 04:00:26;;;;;;;5.32;2.25;;;;;;;;;;5097321;28;20454;-70
2020/12/09 04:02:52;;;;;;;3.85;2.08;;;;;;;;;;5096714;28;20558;-70
2020/12/09 04:05:18;;;;;;;2.28;1.60;;;;;;;;;;5096869;28;20024;-71
2020/12/09 04:07:44;;;;;;;2.28;1.77;;;;;;;;;;5096797;28;20016;-71
2020/12/09 04:10:10;;;;;;;2.05;1.52;;;;;;;;;;5096708;28;20055;-71
2020/12/09 04:12:36;;;;;;;3.00;1.58;;;;;;;;;;5096592;28;20024;-71
2020/12/09 04:15:03;;;;;;;2.53;1.50;;;;;;;;;;5096819;28;20024;-70
2020/12/09 04:17:29;;;;;;;3.72;1.60;;;;;;;;;;5096616;28;20016;-70
2020/12/09 04:19:55;;;;;;;1.85;1.23;;;;;;;;;;5096910;28;20121;-70
2020/12/09 04:22:21;;;;;;;2.03;1.25;;;;;;;;;;5096413;28;20046;-70
2020/12/09 04:24:48;;;;;;;3.13;1.60;;;;;;;;;;5096513;28;20020;-70
2020/12/09 04:27:14;;;;;;;1.90;1.40;;;;;;;;;;5078424;28;20020;-70
2020/12/09 04:29:40;;;;;;;3.45;1.52;;;;;;;;;;5096785;28;20020;-70
2020/12/09 04:32:06;;;;;;;2.05;1.50;;;;;;;;;;5096249;28;20028;-70
2020/12/09 04:34:35;;;;;;;2.08;1.30;;;;;;;;;;5096594;28;20052;-70
2020/12/09 04:37:01;;;;;;;3.40;1.40;;;;;;;;;;5096480;28;20127;-70
2020/12/09 04:39:28;;;;;;;1.17;1.08;;;;;;;;;;5096329;28;20024;-70
2020/12/09 04:41:54;;;;;;;3.05;1.73;;;;;;;;;;5096139;28;20039;-70
2020/12/09 04:44:20;;;;;;;1.90;1.30;;;;;;;;;;5095597;28;20023;-70
2020/12/09 04:46:47;;;;;;;1.65;1.45;;;;;;;;;;5096294;28;20039;-70
2020/12/09 04:49:23;;;;;;;1.60;1.40;;;;;;;;;;5095837;28;20359;-71
2020/12/09 04:52:08;;;;;;;2.13;1.70;;;;;;;;;;5094512;28;20031;-71
2020/12/09 04:54:38;;;;;;;3.30;2.08;;;;;;;;;;5096075;28;20036;-70
2020/12/09 04:57:09;;;;;;;4.32;2.28;;;;;;;;;;5096523;28;20024;-70
2020/12/09 04:59:38;;;;;;;2.97;2.55;;;;;;;;;;5095094;28;20086;-71
2020/12/09 05:02:05;;;;;;;3.60;2.35;;;;;;;;;;5085032;28;20073;-70
2020/12/09 05:04:32;;;;;;;3.85;2.50;;;;;;;;;;5095928;28;20024;-72
2020/12/09 05:07:10;;;;;;;3.20;2.13;;;;;;;;;;5095534;28;20012;-70
2020/12/09 05:09:43;;;;;;;3.90;2.35;;;;;;;;;;5095808;28;20044;-72
2020/12/09 05:12:10;;;;;;;3.03;1.95;;;;;;;;;;5095027;28;20109;-70
2020/12/09 05:14:40;;;;;;;2.03;1.80;;;;;;;;;;5095584;28;20032;-71
2020/12/09 05:17:10;;;;;;;4.45;2.38;;;;;;;;;;5095230;28;20103;-70
2020/12/09 05:19:36;;;;;;;4.72;2.13;;;;;;;;;;5095365;28;20385;-69
2020/12/09 05:22:08;;;;;;;3.03;2.15;;;;;;;;;;5095606;28;20033;-70
2020/12/09 05:24:34;;;;;;;3.10;1.92;;;;;;;;;;5095575;28;20050;-70
2020/12/09 05:27:03;;;;;;;2.55;1.83;;;;;;;;;;5094792;28;20073;-70
2020/12/09 05:29:29;;;;;;;3.92;2.08;;;;;;;;;;5095445;28;20031;-71
2020/12/09 05:31:59;;;;;;;4.47;2.05;;;;;;;;;;5077227;28;20082;-70
2020/12/09 05:34:29;;;;;;;3.42;1.95;;;;;;;;;;5094974;28;20028;-70
2020/12/09 05:36:56;;;;;;;3.03;2.25;;;;;;;;;;5095336;28;20105;-69
2020/12/09 05:39:23;;;;;;;3.33;2.17;;;;;;;;;;5095245;28;20016;-70
2020/12/09 05:41:49;;;;;;;3.33;2.00;;;;;;;;;;5094958;28;20024;-69
2020/12/09 05:44:15;;;;;;;2.70;1.98;;;;;;;;;;5094760;28;20048;-71
2020/12/09 05:47:04;;;;;;;2.55;1.77;;;;;;;;;;5094546;28;20043;-69
2020/12/09 05:49:31;;;;;;;2.17;1.52;;;;;;;;;;5076620;28;20085;-70
2020/12/09 05:52:07;;;;;;;3.45;2.03;;;;;;;;;;5077018;28;20038;-72
2020/12/09 05:54:34;;;;;;;6.15;2.83;;;;;;;;;;5075196;28;20028;-70
2020/12/09 05:57:03;;;;;;;2.92;2.03;;;;;;;;;;5092912;28;20028;-70
2020/12/09 05:59:56;;;;;;;3.42;2.58;;;;;;;;;;5092951;28;20020;-70
2020/12/09 06:02:23;;;;;;;3.20;2.17;;;;;;;;;;5088081;28;20039;-70
2020/12/09 06:04:59;;;;;;;5.38;2.55;;;;;;;;;;5092917;28;20016;-70
2020/12/09 06:07:26;;;;;;;15.20;5.38;;;;;;;;;;5093476;28;20024;-69
2020/12/09 06:10:10;;;;;;;10.43;2.85;;;;;;;;;;5094006;28;20104;-70
2020/12/09 06:12:48;;;;;;;6.20;2.55;;;;;;;;;;5094526;28;20051;-70
2020/12/09 06:15:18;;;;;;;5.88;2.55;;;;;;;;;;5092541;28;20035;-70
2020/12/09 06:17:44;;;;;;;10.15;3.50;;;;;;;;;;5094266;28;20016;-70
2020/12/09 06:20:10;;;;;;;6.40;3.15;;;;;;;;;;5094089;28;20099;-70
2020/12/09 06:22:36;;;;;;;5.00;2.05;;;;;;;;;;5094080;28;20133;-69
2020/12/09 06:25:06;;;;;;;9.98;4.00;;;;;;;;;;5094405;28;20419;-69
2020/12/09 06:27:37;;;;;;;7.22;3.25;;;;;;;;;;5093995;28;20093;-69
2020/12/09 06:30:06;;;;;;;6.75;2.88;;;;;;;;;;5094143;28;20489;-69
2020/12/09 06:32:48;;;;;;;8.85;4.20;;;;;;;;;;5094019;28;20023;-69
2020/12/09 06:35:22;;;;;;;4.22;2.80;;;;;;;;;;5094031;28;20386;-71
2020/12/09 06:38:06;;;;;;;6.60;3.60;;;;;;;;;;5093345;28;20028;-71
2020/12/09 06:40:32;;;;;;;5.32;3.35;;;;;;;;;;5094162;28;20035;-71
2020/12/09 06:43:08;;;;;;;5.60;3.65;;;;;;;;;;5093714;28;20086;-71
2020/12/09 06:45:41;;;;;;;5.90;3.50;;;;;;;;;;5075801;28;20028;-71
2020/12/09 06:48:14;;;;;;;5.45;3.33;;;;;;;;;;5093971;28;20025;-71
2020/12/09 06:50:43;;;;;;;3.65;2.55;;;;;;;;;;5093613;28;20024;-70
2020/12/09 06:53:12;;;;;;;5.10;3.20;;;;;;;;;;5093775;28;20161;-71
2020/12/09 06:55:39;;;;;;;3.28;1.70;;;;;;;;;;5093939;28;20024;-70
2020/12/09 06:58:24;;;;;;;5.57;3.25;;;;;;;;;;5093187;28;20020;-70
2020/12/09 07:01:02;;;;;;;3.80;2.22;;;;;;;;;;5093870;28;20024;-69
2020/12/09 07:03:28;;;;;;;3.47;2.25;;;;;;;;;;5080335;28;20016;-70
2020/12/09 07:05:55;;;;;;;4.78;3.10;;;;;;;;;;5093452;28;20024;-71
2020/12/09 07:08:21;;;;;;;3.47;2.47;;;;;;;;;;5093324;28;20013;-70
2020/12/09 07:10:47;;;;;;;4.90;2.40;;;;;;;;;;5092848;28;20048;-71
2020/12/09 07:13:14;;;;;;;6.28;2.60;;;;;;;;;;5093190;28;20469;-70
2020/12/09 07:15:45;;;;;;;5.78;2.40;;;;;;;;;;5093491;28;20016;-70
2020/12/09 07:18:12;;;;;;;3.80;2.65;;;;;;;;;;5093334;28;20024;-71
2020/12/09 07:20:38;;;;;;;6.70;2.55;;;;;;;;;;5075210;28;20024;-70
2020/12/09 07:23:05;;;;;;;6.45;3.78;;;;;;;;;;5093275;28;20051;-70
2020/12/09 07:25:33;;;;;;;7.63;3.92;;;;;;;;;;5091768;28;20470;-70
2020/12/09 07:28:00;;;;;;;7.22;4.03;;;;;;;;;;5081237;28;20488;-70
2020/12/09 07:30:27;;;;;;;6.50;3.40;;;;;;;;;;5074352;28;20110;-71
2020/12/09 07:32:56;;;;;;;6.10;3.22;;;;;;;;;;5075192;28;20031;-70
2020/12/09 07:35:23;;;;;;;6.30;3.13;;;;;;;;;;5084636;28;20020;-72
2020/12/09 07:37:52;;;;;;;5.22;2.70;;;;;;;;;;5087923;28;20418;-71
2020/12/09 07:40:26;;;;;;;4.82;2.97;;;;;;;;;;5087409;28;20056;-72
2020/12/09 07:43:19;;;;;;;5.63;3.70;;;;;;;;;;5080916;28;20536;-70
2020/12/09 07:45:45;;;;;;;4.93;2.50;;;;;;;;;;5004452;28;20044;-70
2020/12/09 07:48:13;;;;;;;4.13;2.70;;;;;;;;;;5006848;28;20033;-71
2020/12/09 07:50:40;;;;;;;5.63;2.70;;;;;;;;;;5009076;28;20038;-71
2020/12/09 07:53:11;;;;;;;4.50;3.08;;;;;;;;;;5008811;28;20038;-71
2020/12/09 07:55:37;;;;;;;4.97;3.38;;;;;;;;;;5009181;28;20468;-72
2020/12/09 07:58:04;;;;;;;6.35;3.40;;;;;;;;;;4975763;28;20030;-72
2020/12/09 08:00:34;;;;;;;4.95;3.15;;;;;;;;;;5008939;28;20022;-70
2020/12/09 08:03:00;;;;;;;13.20;5.70;;;;;;;;;;5007748;28;20041;-71
2020/12/09 08:05:27;;;;;;;8.15;4.75;;;;;;;;;;4985572;28;20468;-71
2020/12/09 08:07:54;;;;;;;10.20;4.43;;;;;;;;;;5008645;28;20054;-71
2020/12/09 08:10:23;;;;;;;8.25;4.63;;;;;;;;;;5008899;28;20038;-70
2020/12/09 08:12:49;;;;;;;14.82;5.60;;;;;;;;;;5008935;28;20089;-70
2020/12/09 08:15:16;;;;;;;9.75;4.95;;;;;;;;;;5008443;28;20056;-70
2020/12/09 08:17:47;;;;;;;8.18;3.72;;;;;;;;;;5004429;28;20065;-71
2020/12/09 08:20:14;;;;;;;9.60;5.60;;;;;;;;;;5008944;28;20034;-70
2020/12/09 08:22:53;;;;;;;6.97;3.92;;;;;;;;;;5052764;28;20039;-70
2020/12/09 08:25:19;;;;;;;8.70;4.45;;;;;;;;;;5074491;28;20112;-71
2020/12/09 08:27:46;;;;;;;6.00;3.20;;;;;;;;;;5090452;28;20023;-71
2020/12/09 08:30:17;;;;;;;7.68;4.07;;;;;;;;;;5084650;28;20470;-70
2020/12/09 08:32:57;;;;;;;10.32;5.88;;;;;;;;;;5073710;28;20383;-70
2020/12/09 08:35:23;;;;;;;7.40;3.47;;;;;;;;;;5086546;28;20029;-70
2020/12/09 08:37:49;;;;;;;17.15;7.78;;;;;;;;;;5091302;28;20020;-70
2020/12/09 08:40:15;;;;;;;8.45;3.95;;;;;;;;;;5085227;28;20100;-70
2020/12/09 08:43:00;;;;;;;6.50;3.20;;;;;;;;;;5090358;28;20170;-69
2020/12/09 08:45:27;;;;;;;7.55;3.78;;;;;;;;;;5091668;28;20119;-70
2020/12/09 08:47:53;;;;;;;7.80;4.00;;;;;;;;;;5095001;28;20020;-70
2020/12/09 08:50:19;;;;;;;6.75;4.05;;;;;;;;;;5095941;28;20537;-71
2020/12/09 08:52:45;;;;;;;6.32;4.00;;;;;;;;;;5095834;28;20074;-70
2020/12/09 08:55:11;;;;;;;6.85;3.78;;;;;;;;;;5095814;28;20351;-71
2020/12/09 08:57:38;;;;;;;7.82;4.00;;;;;;;;;;5094041;28;20028;-70
2020/12/09 09:00:08;;;;;;;6.60;3.08;;;;;;;;;;5091397;28;20086;-70
2020/12/09 09:02:34;;;;;;;6.47;2.70;;;;;;;;;;5088696;28;20020;-69
2020/12/09 09:05:00;;;;;;;9.48;3.95;;;;;;;;;;5095227;28;20028;-69
2020/12/09 09:07:26;;;;;;;7.47;4.00;;;;;;;;;;5095794;28;20355;-70
2020/12/09 09:09:52;;;;;;;9.32;3.88;;;;;;;;;;5095244;28;20036;-70
2020/12/09 09:12:18;;;;;;;7.47;2.50;;;;;;;;;;5095046;28;20050;-71
2020/12/09 09:14:45;;;;;;;9.27;4.05;;;;;;;;;;5075793;28;20133;-70
2020/12/09 09:17:11;;;;;;;7.72;4.38;;;;;;;;;;5093062;28;20020;-70
2020/12/09 09:19:37;;;;;;;4.90;3.10;;;;;;;;;;5073874;28;20031;-71
2020/12/09 09:22:03;;;;;;;4.68;3.38;;;;;;;;;;5086363;28;20526;-71
2020/12/09 09:24:29;;;;;;;6.97;3.80;;;;;;;;;;5089005;28;20405;-72
2020/12/09 09:26:55;;;;;;;6.45;4.47;;;;;;;;;;5094950;28;20031;-71
2020/12/09 09:29:21;;;;;;;4.70;2.60;;;;;;;;;;5092441;28;20051;-70
2020/12/09 09:31:47;;;;;;;11.23;6.10;;;;;;;;;;5092572;28;20466;-70
2020/12/09 09:34:13;;;;;;;8.68;4.35;;;;;;;;;;5094561;28;20039;-70
2020/12/09 09:36:42;;;;;;;6.65;3.85;;;;;;;;;;5094105;28;20090;-71
2020/12/09 09:39:08;;;;;;;10.63;3.80;;;;;;;;;;5093887;28;20473;-70
2020/12/09 09:41:35;;;;;;;8.80;3.40;;;;;;;;;;5076838;28;20114;-68
2020/12/09 09:44:02;;;;;;;4.40;2.40;;;;;;;;;;5095000;28;20027;-68
2020/12/09 09:46:28;;;;;;;7.90;3.83;;;;;;;;;;5076345;28;20471;-69
2020/12/09 09:48:54;;;;;;;5.30;3.28;;;;;;;;;;5091019;28;20017;-69
2020/12/09 09:51:20;;;;;;;6.60;3.85;;;;;;;;;;5074868;28;20038;-69
2020/12/09 09:53:46;;;;;;;5.20;3.13;;;;;;;;;;5073263;28;20020;-68
2020/12/09 09:56:12;;;;;;;4.75;2.58;;;;;;;;;;5071669;28;20491;-69
2020/12/09 09:58:38;;;;;;;7.13;3.35;;;;;;;;;;5089919;28;20377;-69
2020/12/09 10:01:04;;;;;;;8.30;3.95;;;;;;;;;;5075465;28;20028;-70
2020/12/09 10:03:30;;;;;;;12.52;5.10;;;;;;;;;;5094665;28;20023;-70
2020/12/09 10:05:56;;;;;;;4.18;2.47;;;;;;;;;;5093996;28;20032;-69
2020/12/09 10:08:23;;;;;;;5.65;3.22;;;;;;;;;;5094437;28;20020;-69
2020/12/09 10:10:49;;;;;;;11.13;4.05;;;;;;;;;;5084606;28;20827;-69
2020/12/09 10:13:15;;;;;;;5.10;2.47;;;;;;;;;;5093687;28;20030;-69
2020/12/09 10:15:42;;;;;;;4.53;2.97;;;;;;;;;;5093244;28;20024;-68
2020/12/09 10:18:08;;;;;;;8.95;3.33;;;;;;;;;;5093303;28;20024;-68
2020/12/09 10:20:34;;;;;;;6.57;2.50;;;;;;;;;;5092826;28;20381;-68
2020/12/09 10:23:00;;;;;;;5.25;3.15;;;;;;;;;;5093185;28;20024;-71
2020/12/09 10:25:26;;;;;;;4.13;2.58;;;;;;;;;;5093700;28;20024;-69
2020/12/09 10:27:53;;;;;;;4.78;2.45;;;;;;;;;;5092603;28;20055;-68
2020/12/09 10:30:19;;;;;;;3.95;2.25;;;;;;;;;;5093770;28;20107;-70
2020/12/09 10:32:46;;;;;;;5.90;3.35;;;;;;;;;;5093176;28;20121;-70
2020/12/09 10:35:12;;;;;;;5.90;3.17;;;;;;;;;;5085407;28;20137;-69
2020/12/09 10:37:38;;;;;;;7.72;3.20;;;;;;;;;;5093338;28;20496;-70
2020/12/09 10:40:05;;;;;;;6.40;3.47;;;;;;;;;;5092749;28;20032;-69
2020/12/09 10:42:31;;;;;;;4.35;2.58;;;;;;;;;;5093044;28;20031;-70
2020/12/09 10:44:57;;;;;;;4.03;2.50;;;;;;;;;;5093151;28;20495;-68
2020/12/09 10:47:23;;;;;;;7.65;3.85;;;;;;;;;;5084965;28;20021;-71
2020/12/09 10:49:50;;;;;;;4.35;2.72;;;;;;;;;;5080140;28;20381;-68
2020/12/09 10:52:16;;;;;;;7.10;3.17;;;;;;;;;;5080628;28;20082;-69
2020/12/09 10:54:42;;;;;;;3.63;2.38;;;;;;;;;;5077306;28;20351;-69
2020/12/09 10:57:08;;;;;;;3.78;2.33;;;;;;;;;;5075950;28;20017;-68
2020/12/09 10:59:35;;;;;;;9.45;3.33;;;;;;;;;;5074307;28;20085;-71
2020/12/09 11:02:01;;;;;;;6.53;3.13;;;;;;;;;;5082063;28;20028;-67
2020/12/09 11:04:27;;;;;;;6.93;3.28;;;;;;;;;;5080647;28;20420;-69
2020/12/09 11:06:53;;;;;;;4.53;2.92;;;;;;;;;;5088564;28;20047;-73
2020/12/09 11:09:19;;;;;;;4.90;2.22;;;;;;;;;;5092505;28;20426;-70
2020/12/09 11:11:46;;;;;;;5.95;3.38;;;;;;;;;;5074884;28;20032;-69
2020/12/09 11:14:13;;;;;;;3.40;1.75;;;;;;;;;;5093209;28;20103;-71
2020/12/09 11:16:39;;;;;;;5.20;3.30;;;;;;;;;;5092456;28;20020;-69
2020/12/09 11:19:05;;;;;;;3.83;2.47;;;;;;;;;;5092789;28;20020;-70
2020/12/09 11:21:31;;;;;;;5.38;2.30;;;;;;;;;;5093013;28;20068;-69
2020/12/09 11:23:59;;;;;;;3.33;2.33;;;;;;;;;;5092781;28;20347;-70
2020/12/09 11:26:27;;;;;;;6.10;2.30;;;;;;;;;;5093016;28;20020;-69
2020/12/09 11:28:54;;;;;;;3.90;2.22;;;;;;;;;;5092563;28;20027;-68
2020/12/09 11:31:26;;;;;;;3.97;2.83;;;;;;;;;;5093076;28;20025;-72
2020/12/09 11:33:53;;;;;;;4.78;2.80;;;;;;;;;;5092741;28;20469;-68
2020/12/09 11:36:23;;;;;;;4.18;2.33;;;;;;;;;;5092462;28;20028;-70
2020/12/09 11:38:49;;;;;;;6.10;3.13;;;;;;;;;;5092698;28;20531;-70
2020/12/09 11:41:15;;;;;;;8.15;3.65;;;;;;;;;;5092430;28;20020;-70
2020/12/09 11:43:44;;;;;;;5.15;3.28;;;;;;;;;;5091789;28;20089;-69
2020/12/09 11:46:11;;;;;;;4.55;3.13;;;;;;;;;;5091683;28;20012;-71
2020/12/09 11:48:37;;;;;;;4.43;2.80;;;;;;;;;;5090693;28;20034;-70
2020/12/09 11:51:04;;;;;;;2.97;2.03;;;;;;;;;;5054708;28;20369;-70
2020/12/09 11:53:30;;;;;;;5.15;2.90;;;;;;;;;;5074134;28;20078;-70
2020/12/09 11:55:56;;;;;;;4.75;2.42;;;;;;;;;;5072037;28;20029;-70
2020/12/09 11:58:22;;;;;;;8.38;3.45;;;;;;;;;;5074604;28;20470;-72
2020/12/09 12:00:48;;;;;;;3.67;2.15;;;;;;;;;;5075316;28;20580;-72
2020/12/09 12:03:14;;;;;;;4.75;2.40;;;;;;;;;;5078315;28;20378;-69
2020/12/09 12:05:42;;;;;;;7.45;3.10;;;;;;;;;;5076604;28;20017;-72
2020/12/09 12:08:08;;;;;;;7.30;3.53;;;;;;;;;;5076363;28;20020;-71
2020/12/09 12:10:35;;;;;;;7.65;3.08;;;;;;;;;;5077118;28;20115;-69
2020/12/09 12:13:02;;;;;;;7.30;3.25;;;;;;;;;;5087558;28;20437;-70
2020/12/09 12:15:28;;;;;;;5.53;3.25;;;;;;;;;;5096192;28;20020;-69
2020/12/09 12:17:55;;;;;;;5.88;2.75;;;;;;;;;;5096020;28;20046;-73
2020/12/09 12:20:21;;;;;;;6.95;2.85;;;;;;;;;;5094255;28;20017;-70
2020/12/09 12:22:47;;;;;;;8.70;3.38;;;;;;;;;;5083135;28;20115;-68
2020/12/09 12:25:13;;;;;;;10.80;4.97;;;;;;;;;;5094187;28;20369;-70
2020/12/09 12:27:39;;;;;;;35.47;14.57;;;;;;;;;;5094935;28;20095;-71
2020/12/09 12:30:06;;;;;;;6.35;3.30;;;;;;;;;;5094649;28;20024;-70
2020/12/09 12:32:32;;;;;;;10.60;6.05;;;;;;;;;;5077844;28;20043;-70
2020/12/09 12:34:58;;;;;;;11.35;4.68;;;;;;;;;;5085049;28;20358;-69
2020/12/09 12:37:24;;;;;;;4.35;2.35;;;;;;;;;;5093579;28;20023;-70
2020/12/09 12:39:50;;;;;;;4.13;2.80;;;;;;;;;;5085978;28;20028;-70
2020/12/09 12:42:19;;;;;;;6.50;4.50;;;;;;;;;;5074508;28;20078;-72
2020/12/09 12:44:45;;;;;;;12.88;4.07;;;;;;;;;;5073468;28;20744;-74
2020/12/09 12:47:11;;;;;;;7.05;3.63;;;;;;;;;;5078039;28;20021;-72
2020/12/09 12:49:41;;;;;;;4.22;2.67;;;;;;;;;;5076942;28;20417;-74
2020/12/09 12:52:07;;;;;;;5.55;2.40;;;;;;;;;;5057155;28;20062;-72
2020/12/09 12:54:33;;;;;;;5.63;3.08;;;;;;;;;;5074715;28;20035;-75
2020/12/09 12:56:59;;;;;;;7.47;3.40;;;;;;;;;;5073998;28;20028;-73
2020/12/09 12:59:25;;;;;;;3.83;2.25;;;;;;;;;;5073611;28;20016;-77
2020/12/09 13:01:52;;;;;;;2.45;1.60;;;;;;;;;;5077459;28;20037;-69
2020/12/09 13:04:18;;;;;;;5.63;3.33;;;;;;;;;;5082982;28;20020;-73
2020/12/09 13:06:44;;;;;;;4.07;2.70;;;;;;;;;;5094540;28;20042;-70
2020/12/09 13:09:10;;;;;;;7.32;3.10;;;;;;;;;;5093662;28;20044;-69
2020/12/09 13:11:36;;;;;;;5.07;3.00;;;;;;;;;;5075920;28;20129;-70
2020/12/09 13:14:03;;;;;;;7.75;4.28;;;;;;;;;;5093784;28;20041;-71
2020/12/09 13:16:29;;;;;;;9.02;4.18;;;;;;;;;;5093609;28;20058;-69
2020/12/09 13:18:56;;;;;;;7.40;3.58;;;;;;;;;;5090952;28;20032;-70
2020/12/09 13:21:22;;;;;;;7.68;4.18;;;;;;;;;;5092696;28;20027;-69
2020/12/09 13:23:49;;;;;;;6.55;3.95;;;;;;;;;;5094257;28;20028;-69
2020/12/09 13:26:16;;;;;;;8.02;4.10;;;;;;;;;;5093696;28;20039;-70
2020/12/09 13:28:42;;;;;;;4.68;2.92;;;;;;;;;;5093744;28;20073;-70
2020/12/09 13:31:08;;;;;;;10.80;3.60;;;;;;;;;;5094119;28;20030;-71
2020/12/09 13:33:34;;;;;;;8.20;3.38;;;;;;;;;;5094031;28;20031;-71
2020/12/09 13:36:00;;;;;;;7.57;4.28;;;;;;;;;;5093020;28;20051;-69
2020/12/09 13:38:26;;;;;;;8.40;4.20;;;;;;;;;;5094039;28;20016;-68
2020/12/09 13:40:52;;;;;;;7.22;3.15;;;;;;;;;;5093125;28;20055;-69
2020/12/09 13:43:18;;;;;;;6.40;4.05;;;;;;;;;;5075346;28;20040;-70
2020/12/09 13:45:44;;;;;;;7.50;2.85;;;;;;;;;;5074049;28;20020;-68
2020/12/09 13:48:10;;;;;;;5.97;3.47;;;;;;;;;;5092986;28;20032;-71
2020/12/09 13:50:36;;;;;;;8.10;2.70;;;;;;;;;;5093424;28;20476;-71
2020/12/09 13:53:04;;;;;;;4.13;2.55;;;;;;;;;;5093592;28;20078;-69
2020/12/09 13:55:30;;;;;;;7.32;3.42;;;;;;;;;;5093718;28;20385;-70
2020/12/09 13:57:56;;;;;;;4.43;2.65;;;;;;;;;;5092605;28;20056;-71
2020/12/09 14:00:22;;;;;;;2.17;1.80;;;;;;;;;;5093211;28;20024;-70
2020/12/09 14:02:48;;;;;;;6.47;3.03;;;;;;;;;;5093217;28;20050;-71
2020/12/09 14:05:14;;;;;;;6.70;3.80;;;;;;;;;;5092265;28;20086;-69
2020/12/09 14:07:40;;;;;;;6.13;3.38;;;;;;;;;;5092932;28;20165;-69
2020/12/09 14:10:07;;;;;;;5.40;2.85;;;;;;;;;;5092925;28;20048;-70
2020/12/09 14:12:33;;;;;;;5.97;3.53;;;;;;;;;;5062728;28;20351;-71
2020/12/09 14:14:59;;;;;;;4.40;2.60;;;;;;;;;;5082616;28;20040;-69
2020/12/09 14:17:25;;;;;;;5.78;3.08;;;;;;;;;;5092204;28;20401;-69
2020/12/09 14:19:53;;;;;;;6.93;3.05;;;;;;;;;;5092462;28;20047;-70
2020/12/09 14:22:19;;;;;;;7.32;3.90;;;;;;;;;;5093304;28;20035;-70
2020/12/09 14:24:46;;;;;;;6.13;3.33;;;;;;;;;;5092731;28;20017;-70
2020/12/09 14:27:13;;;;;;;6.07;2.63;;;;;;;;;;5092744;28;20028;-69
2020/12/09 14:29:39;;;;;;;6.57;3.58;;;;;;;;;;5093203;28;20020;-69
2020/12/09 14:32:05;;;;;;;3.65;2.40;;;;;;;;;;5092316;28;20330;-69
2020/12/09 14:34:31;;;;;;;6.35;4.10;;;;;;;;;;5091729;28;20552;-70
2020/12/09 14:36:58;;;;;;;9.02;3.75;;;;;;;;;;5092217;28;20028;-70
2020/12/09 14:39:24;;;;;;;6.55;3.40;;;;;;;;;;5090101;28;20050;-70
2020/12/09 14:41:53;;;;;;;6.40;3.53;;;;;;;;;;5091960;28;20032;-72
2020/12/09 14:44:22;;;;;;;11.05;4.10;;;;;;;;;;5093153;28;20028;-69